sensor_id;sensor_type;location;lat;lon;timestamp;P1;durP1;ratioP1;P2;durP2;ratioP2
39400;SDS011;54391;50.000;7.360;2022-11-20T00:00:51;2.50;;;1.60;;
39400;SDS011;54391;50.000;7.360;2022-11-20T00:03:19;1.60;;;1.10;;
39400;SDS011;54391;50.000;7.360;2022-11-20T00:05:47;1.98;;;1.30;;
39400;SDS011;54391;50.000;7.360;2022-11-20T00:08:14;2.83;;;1.50;;
39400;SDS011;54391;50.000;7.360;2022-11-20T00:10:43;1.92;;;1.40;;
39400;SDS011;54391;50.000;7.360;2022-11-20T00:13:11;2.05;;;1.55;;
39400;SDS011;54391;50.000;7.360;2022-11-20T00:15:38;2.55;;;1.25;;
39400;SDS011;54391;50.000;7.360;2022-11-20T00:18:05;2.35;;;1.40;;
39400;SDS011;54391;50.000;7.360;2022-11-20T00:20:33;2.42;;;1.60;;
39400;SDS011;54391;50.000;7.360;2022-11-20T00:23:00;2.35;;;1.52;;
39400;SDS011;54391;50.000;7.360;2022-11-20T00:25:28;2.53;;;1.70;;
39400;SDS011;54391;50.000;7.360;2022-11-20T00:27:57;2.05;;;1.48;;
39400;SDS011;54391;50.000;7.360;2022-11-20T00:30:25;2.63;;;1.52;;
39400;SDS011;54391;50.000;7.360;2022-11-20T00:32:52;3.67;;;1.42;;
39400;SDS011;54391;50.000;7.360;2022-11-20T00:35:20;2.80;;;1.67;;
39400;SDS011;54391;50.000;7.360;2022-11-20T00:37:47;2.33;;;1.27;;
39400;SDS011;54391;50.000;7.360;2022-11-20T00:40:15;2.25;;;1.40;;
39400;SDS011;54391;50.000;7.360;2022-11-20T00:42:42;2.88;;;1.60;;
39400;SDS011;54391;50.000;7.360;2022-11-20T00:45:11;2.72;;;1.67;;
39400;SDS011;54391;50.000;7.360;2022-11-20T00:47:39;2.95;;;1.38;;
39400;SDS011;54391;50.000;7.360;2022-11-20T00:50:06;3.38;;;1.80;;
39400;SDS011;54391;50.000;7.360;2022-11-20T00:52:34;2.67;;;1.60;;
39400;SDS011;54391;50.000;7.360;2022-11-20T00:55:02;2.75;;;1.67;;
39400;SDS011;54391;50.000;7.360;2022-11-20T00:57:30;3.13;;;1.65;;
39400;SDS011;54391;50.000;7.360;2022-11-20T00:59:58;2.35;;;1.48;;
39400;SDS011;54391;50.000;7.360;2022-11-20T01:02:27;3.42;;;1.98;;
39400;SDS011;54391;50.000;7.360;2022-11-20T01:04:54;4.45;;;2.05;;
39400;SDS011;54391;50.000;7.360;2022-11-20T01:07:21;17.88;;;4.80;;
39400;SDS011;54391;50.000;7.360;2022-11-20T01:09:49;9.80;;;4.13;;
39400;SDS011;54391;50.000;7.360;2022-11-20T01:12:17;3.60;;;2.22;;
39400;SDS011;54391;50.000;7.360;2022-11-20T01:14:44;3.47;;;2.13;;
39400;SDS011;54391;50.000;7.360;2022-11-20T01:17:11;3.45;;;1.92;;
39400;SDS011;54391;50.000;7.360;2022-11-20T01:19:40;15.77;;;4.50;;
39400;SDS011;54391;50.000;7.360;2022-11-20T01:22:08;43.20;;;8.70;;
39400;SDS011;54391;50.000;7.360;2022-11-20T01:24:35;10.23;;;3.72;;
39400;SDS011;54391;50.000;7.360;2022-11-20T01:27:04;8.35;;;3.42;;
39400;SDS011;54391;50.000;7.360;2022-11-20T01:29:31;28.90;;;6.15;;
39400;SDS011;54391;50.000;7.360;2022-11-20T01:31:59;50.78;;;9.88;;
39400;SDS011;54391;50.000;7.360;2022-11-20T01:34:27;41.15;;;7.28;;
39400;SDS011;54391;50.000;7.360;2022-11-20T01:36:56;14.32;;;4.00;;
39400;SDS011;54391;50.000;7.360;2022-11-20T01:39:24;57.55;;;10.75;;
39400;SDS011;54391;50.000;7.360;2022-11-20T01:41:53;80.63;;;14.23;;
39400;SDS011;54391;50.000;7.360;2022-11-20T01:44:43;19.15;;;6.22;;
39400;SDS011;54391;50.000;7.360;2022-11-20T01:47:33;97.07;;;16.40;;
39400;SDS011;54391;50.000;7.360;2022-11-20T01:50:04;77.43;;;16.90;;
39400;SDS011;54391;50.000;7.360;2022-11-20T01:52:38;71.03;;;14.63;;
39400;SDS011;54391;50.000;7.360;2022-11-20T01:55:09;112.15;;;21.55;;
39400;SDS011;54391;50.000;7.360;2022-11-20T01:57:39;46.17;;;7.82;;
39400;SDS011;54391;50.000;7.360;2022-11-20T02:00:09;102.05;;;18.40;;
39400;SDS011;54391;50.000;7.360;2022-11-20T02:02:38;69.22;;;11.27;;
39400;SDS011;54391;50.000;7.360;2022-11-20T02:05:12;20.80;;;4.82;;
39400;SDS011;54391;50.000;7.360;2022-11-20T02:07:47;103.72;;;16.50;;
39400;SDS011;54391;50.000;7.360;2022-11-20T02:10:16;67.22;;;12.30;;
39400;SDS011;54391;50.000;7.360;2022-11-20T02:12:43;50.05;;;9.07;;
39400;SDS011;54391;50.000;7.360;2022-11-20T02:17:58;34.90;;;6.40;;
39400;SDS011;54391;50.000;7.360;2022-11-20T02:20:26;67.85;;;9.25;;
39400;SDS011;54391;50.000;7.360;2022-11-20T02:22:57;23.70;;;4.40;;
39400;SDS011;54391;50.000;7.360;2022-11-20T02:25:29;26.60;;;5.05;;
39400;SDS011;54391;50.000;7.360;2022-11-20T02:27:59;28.95;;;5.50;;
39400;SDS011;54391;50.000;7.360;2022-11-20T02:30:27;28.35;;;5.28;;
39400;SDS011;54391;50.000;7.360;2022-11-20T02:32:54;23.67;;;4.40;;
39400;SDS011;54391;50.000;7.360;2022-11-20T02:38:09;26.73;;;4.68;;
39400;SDS011;54391;50.000;7.360;2022-11-20T02:40:39;29.05;;;5.50;;
39400;SDS011;54391;50.000;7.360;2022-11-20T02:43:06;45.80;;;6.13;;
39400;SDS011;54391;50.000;7.360;2022-11-20T02:45:34;46.40;;;6.55;;
39400;SDS011;54391;50.000;7.360;2022-11-20T02:48:02;68.05;;;8.27;;
39400;SDS011;54391;50.000;7.360;2022-11-20T02:50:30;81.22;;;8.73;;
39400;SDS011;54391;50.000;7.360;2022-11-20T02:52:57;55.72;;;7.28;;
39400;SDS011;54391;50.000;7.360;2022-11-20T02:55:25;44.28;;;6.45;;
39400;SDS011;54391;50.000;7.360;2022-11-20T02:57:54;41.55;;;8.32;;
39400;SDS011;54391;50.000;7.360;2022-11-20T03:00:21;31.63;;;5.70;;
39400;SDS011;54391;50.000;7.360;2022-11-20T03:02:49;56.03;;;6.80;;
39400;SDS011;54391;50.000;7.360;2022-11-20T03:05:16;46.33;;;5.63;;
39400;SDS011;54391;50.000;7.360;2022-11-20T03:07:44;50.38;;;6.72;;
39400;SDS011;54391;50.000;7.360;2022-11-20T03:10:11;41.03;;;6.60;;
39400;SDS011;54391;50.000;7.360;2022-11-20T03:12:39;41.58;;;5.38;;
39400;SDS011;54391;50.000;7.360;2022-11-20T03:15:09;38.30;;;6.00;;
39400;SDS011;54391;50.000;7.360;2022-11-20T03:17:37;70.05;;;8.23;;
39400;SDS011;54391;50.000;7.360;2022-11-20T03:20:05;35.50;;;5.70;;
39400;SDS011;54391;50.000;7.360;2022-11-20T03:22:34;55.08;;;7.63;;
39400;SDS011;54391;50.000;7.360;2022-11-20T03:25:02;50.63;;;6.68;;
39400;SDS011;54391;50.000;7.360;2022-11-20T03:27:31;64.72;;;8.38;;
39400;SDS011;54391;50.000;7.360;2022-11-20T03:30:00;61.05;;;6.88;;
39400;SDS011;54391;50.000;7.360;2022-11-20T03:32:30;44.03;;;6.88;;
39400;SDS011;54391;50.000;7.360;2022-11-20T03:34:57;67.93;;;9.95;;
39400;SDS011;54391;50.000;7.360;2022-11-20T03:37:25;39.78;;;6.40;;
39400;SDS011;54391;50.000;7.360;2022-11-20T03:39:52;48.25;;;7.78;;
39400;SDS011;54391;50.000;7.360;2022-11-20T03:42:20;31.52;;;6.22;;
39400;SDS011;54391;50.000;7.360;2022-11-20T03:45:05;33.30;;;5.95;;
39400;SDS011;54391;50.000;7.360;2022-11-20T03:47:34;35.80;;;6.95;;
39400;SDS011;54391;50.000;7.360;2022-11-20T03:50:02;40.22;;;7.40;;
39400;SDS011;54391;50.000;7.360;2022-11-20T03:52:30;44.85;;;7.95;;
39400;SDS011;54391;50.000;7.360;2022-11-20T03:54:58;48.53;;;7.38;;
39400;SDS011;54391;50.000;7.360;2022-11-20T03:57:25;28.83;;;5.78;;
39400;SDS011;54391;50.000;7.360;2022-11-20T03:59:52;53.85;;;8.23;;
39400;SDS011;54391;50.000;7.360;2022-11-20T04:02:20;52.90;;;7.88;;
39400;SDS011;54391;50.000;7.360;2022-11-20T04:04:49;40.30;;;6.75;;
39400;SDS011;54391;50.000;7.360;2022-11-20T04:07:17;21.05;;;4.85;;
39400;SDS011;54391;50.000;7.360;2022-11-20T04:09:44;28.10;;;5.53;;
39400;SDS011;54391;50.000;7.360;2022-11-20T04:12:12;17.92;;;4.65;;
39400;SDS011;54391;50.000;7.360;2022-11-20T04:14:39;20.45;;;5.05;;
39400;SDS011;54391;50.000;7.360;2022-11-20T04:17:07;4.78;;;2.20;;
39400;SDS011;54391;50.000;7.360;2022-11-20T04:19:34;6.40;;;2.95;;
39400;SDS011;54391;50.000;7.360;2022-11-20T04:22:03;6.97;;;2.65;;
39400;SDS011;54391;50.000;7.360;2022-11-20T04:24:30;7.03;;;2.53;;
39400;SDS011;54391;50.000;7.360;2022-11-20T04:26:58;6.55;;;2.20;;
39400;SDS011;54391;50.000;7.360;2022-11-20T04:29:27;5.15;;;2.75;;
39400;SDS011;54391;50.000;7.360;2022-11-20T04:31:54;4.60;;;1.58;;
39400;SDS011;54391;50.000;7.360;2022-11-20T04:34:22;26.05;;;5.15;;
39400;SDS011;54391;50.000;7.360;2022-11-20T04:36:49;8.23;;;3.88;;
39400;SDS011;54391;50.000;7.360;2022-11-20T04:39:18;4.25;;;2.00;;
39400;SDS011;54391;50.000;7.360;2022-11-20T04:41:46;4.15;;;1.85;;
39400;SDS011;54391;50.000;7.360;2022-11-20T04:44:13;3.03;;;1.88;;
39400;SDS011;54391;50.000;7.360;2022-11-20T04:46:41;4.47;;;2.28;;
39400;SDS011;54391;50.000;7.360;2022-11-20T04:49:10;3.42;;;1.80;;
39400;SDS011;54391;50.000;7.360;2022-11-20T04:51:38;2.60;;;1.60;;
39400;SDS011;54391;50.000;7.360;2022-11-20T04:54:05;4.15;;;1.77;;
39400;SDS011;54391;50.000;7.360;2022-11-20T04:56:34;4.68;;;1.80;;
39400;SDS011;54391;50.000;7.360;2022-11-20T04:59:02;5.70;;;1.67;;
39400;SDS011;54391;50.000;7.360;2022-11-20T05:01:29;4.22;;;1.75;;
39400;SDS011;54391;50.000;7.360;2022-11-20T05:03:57;8.23;;;2.35;;
39400;SDS011;54391;50.000;7.360;2022-11-20T05:06:25;15.88;;;3.17;;
39400;SDS011;54391;50.000;7.360;2022-11-20T05:08:53;15.02;;;4.45;;
39400;SDS011;54391;50.000;7.360;2022-11-20T05:11:20;25.80;;;5.82;;
39400;SDS011;54391;50.000;7.360;2022-11-20T05:13:50;12.18;;;2.95;;
39400;SDS011;54391;50.000;7.360;2022-11-20T05:16:19;15.25;;;3.88;;
39400;SDS011;54391;50.000;7.360;2022-11-20T05:18:47;18.25;;;3.35;;
39400;SDS011;54391;50.000;7.360;2022-11-20T05:21:16;5.32;;;2.22;;
39400;SDS011;54391;50.000;7.360;2022-11-20T05:23:44;4.03;;;1.90;;
39400;SDS011;54391;50.000;7.360;2022-11-20T05:26:13;6.75;;;2.50;;
39400;SDS011;54391;50.000;7.360;2022-11-20T05:28:41;10.88;;;3.20;;
39400;SDS011;54391;50.000;7.360;2022-11-20T05:31:11;7.75;;;2.80;;
39400;SDS011;54391;50.000;7.360;2022-11-20T05:33:39;20.77;;;5.82;;
39400;SDS011;54391;50.000;7.360;2022-11-20T05:36:08;19.92;;;4.32;;
39400;SDS011;54391;50.000;7.360;2022-11-20T05:38:36;5.35;;;2.47;;
39400;SDS011;54391;50.000;7.360;2022-11-20T05:41:05;18.33;;;4.85;;
39400;SDS011;54391;50.000;7.360;2022-11-20T05:43:33;20.40;;;4.90;;
39400;SDS011;54391;50.000;7.360;2022-11-20T05:46:01;31.92;;;6.30;;
39400;SDS011;54391;50.000;7.360;2022-11-20T05:48:31;34.63;;;6.43;;
39400;SDS011;54391;50.000;7.360;2022-11-20T05:51:00;44.92;;;6.30;;
39400;SDS011;54391;50.000;7.360;2022-11-20T05:53:29;32.60;;;5.63;;
39400;SDS011;54391;50.000;7.360;2022-11-20T05:55:58;42.10;;;7.93;;
39400;SDS011;54391;50.000;7.360;2022-11-20T05:58:29;38.40;;;5.95;;
39400;SDS011;54391;50.000;7.360;2022-11-20T06:01:02;52.35;;;7.55;;
39400;SDS011;54391;50.000;7.360;2022-11-20T06:03:32;38.78;;;6.75;;
39400;SDS011;54391;50.000;7.360;2022-11-20T06:06:00;42.45;;;6.57;;
39400;SDS011;54391;50.000;7.360;2022-11-20T06:08:29;41.25;;;7.75;;
39400;SDS011;54391;50.000;7.360;2022-11-20T06:10:57;50.17;;;7.80;;
39400;SDS011;54391;50.000;7.360;2022-11-20T06:13:25;69.32;;;9.90;;
39400;SDS011;54391;50.000;7.360;2022-11-20T06:15:53;62.97;;;12.13;;
39400;SDS011;54391;50.000;7.360;2022-11-20T06:18:20;58.30;;;8.35;;
39400;SDS011;54391;50.000;7.360;2022-11-20T06:20:49;44.05;;;7.75;;
39400;SDS011;54391;50.000;7.360;2022-11-20T06:23:27;50.35;;;7.15;;
39400;SDS011;54391;50.000;7.360;2022-11-20T06:25:55;35.65;;;8.23;;
39400;SDS011;54391;50.000;7.360;2022-11-20T06:28:23;51.53;;;9.88;;
39400;SDS011;54391;50.000;7.360;2022-11-20T06:30:50;44.17;;;7.60;;
39400;SDS011;54391;50.000;7.360;2022-11-20T06:33:18;65.57;;;12.10;;
39400;SDS011;54391;50.000;7.360;2022-11-20T06:35:46;61.25;;;12.70;;
39400;SDS011;54391;50.000;7.360;2022-11-20T06:38:15;53.97;;;12.00;;
39400;SDS011;54391;50.000;7.360;2022-11-20T06:40:43;55.40;;;11.05;;
39400;SDS011;54391;50.000;7.360;2022-11-20T06:43:10;68.25;;;12.68;;
39400;SDS011;54391;50.000;7.360;2022-11-20T06:45:38;78.15;;;13.52;;
39400;SDS011;54391;50.000;7.360;2022-11-20T06:48:05;44.63;;;7.97;;
39400;SDS011;54391;50.000;7.360;2022-11-20T06:50:33;32.00;;;5.88;;
39400;SDS011;54391;50.000;7.360;2022-11-20T06:53:01;9.45;;;2.78;;
39400;SDS011;54391;50.000;7.360;2022-11-20T06:55:30;9.45;;;2.72;;
39400;SDS011;54391;50.000;7.360;2022-11-20T06:57:58;10.60;;;4.05;;
39400;SDS011;54391;50.000;7.360;2022-11-20T07:00:26;6.93;;;3.17;;
39400;SDS011;54391;50.000;7.360;2022-11-20T07:02:53;6.47;;;3.17;;
39400;SDS011;54391;50.000;7.360;2022-11-20T07:05:21;7.38;;;3.10;;
39400;SDS011;54391;50.000;7.360;2022-11-20T07:07:48;5.32;;;3.20;;
39400;SDS011;54391;50.000;7.360;2022-11-20T07:10:16;11.15;;;4.63;;
39400;SDS011;54391;50.000;7.360;2022-11-20T07:12:50;7.43;;;3.33;;
39400;SDS011;54391;50.000;7.360;2022-11-20T07:15:18;4.32;;;2.58;;
39400;SDS011;54391;50.000;7.360;2022-11-20T07:17:47;4.95;;;2.60;;
39400;SDS011;54391;50.000;7.360;2022-11-20T07:20:15;6.30;;;2.58;;
39400;SDS011;54391;50.000;7.360;2022-11-20T07:22:43;7.00;;;3.03;;
39400;SDS011;54391;50.000;7.360;2022-11-20T07:25:10;5.82;;;3.38;;
39400;SDS011;54391;50.000;7.360;2022-11-20T07:27:38;5.70;;;3.03;;
39400;SDS011;54391;50.000;7.360;2022-11-20T07:30:07;3.95;;;2.47;;
39400;SDS011;54391;50.000;7.360;2022-11-20T07:32:35;5.63;;;3.33;;
39400;SDS011;54391;50.000;7.360;2022-11-20T07:35:03;4.47;;;2.83;;
39400;SDS011;54391;50.000;7.360;2022-11-20T07:37:33;4.82;;;2.75;;
39400;SDS011;54391;50.000;7.360;2022-11-20T07:40:01;3.75;;;2.20;;
39400;SDS011;54391;50.000;7.360;2022-11-20T07:42:29;4.53;;;2.35;;
39400;SDS011;54391;50.000;7.360;2022-11-20T07:44:56;4.65;;;2.65;;
39400;SDS011;54391;50.000;7.360;2022-11-20T07:47:25;4.75;;;2.75;;
39400;SDS011;54391;50.000;7.360;2022-11-20T07:49:52;5.15;;;3.33;;
39400;SDS011;54391;50.000;7.360;2022-11-20T07:52:20;3.78;;;2.78;;
39400;SDS011;54391;50.000;7.360;2022-11-20T07:54:47;5.10;;;3.22;;
39400;SDS011;54391;50.000;7.360;2022-11-20T07:57:15;5.18;;;3.60;;
39400;SDS011;54391;50.000;7.360;2022-11-20T07:59:43;5.78;;;3.38;;
39400;SDS011;54391;50.000;7.360;2022-11-20T08:02:11;5.20;;;3.63;;
39400;SDS011;54391;50.000;7.360;2022-11-20T08:04:40;6.40;;;4.18;;
39400;SDS011;54391;50.000;7.360;2022-11-20T08:07:07;6.00;;;4.10;;
39400;SDS011;54391;50.000;7.360;2022-11-20T08:09:35;5.72;;;4.15;;
39400;SDS011;54391;50.000;7.360;2022-11-20T08:12:02;7.70;;;4.20;;
39400;SDS011;54391;50.000;7.360;2022-11-20T08:14:47;6.55;;;4.25;;
39400;SDS011;54391;50.000;7.360;2022-11-20T08:17:15;7.82;;;5.43;;
39400;SDS011;54391;50.000;7.360;2022-11-20T08:19:44;6.65;;;4.38;;
39400;SDS011;54391;50.000;7.360;2022-11-20T08:22:12;6.10;;;3.95;;
39400;SDS011;54391;50.000;7.360;2022-11-20T08:24:39;6.05;;;4.45;;
39400;SDS011;54391;50.000;7.360;2022-11-20T08:27:07;6.07;;;3.72;;
39400;SDS011;54391;50.000;7.360;2022-11-20T08:29:34;7.10;;;4.50;;
39400;SDS011;54391;50.000;7.360;2022-11-20T08:32:02;6.50;;;4.28;;
39400;SDS011;54391;50.000;7.360;2022-11-20T08:34:30;7.80;;;5.00;;
39400;SDS011;54391;50.000;7.360;2022-11-20T08:36:59;6.38;;;4.32;;
39400;SDS011;54391;50.000;7.360;2022-11-20T08:39:29;5.50;;;3.60;;
39400;SDS011;54391;50.000;7.360;2022-11-20T08:41:56;5.65;;;3.20;;
39400;SDS011;54391;50.000;7.360;2022-11-20T08:44:24;4.80;;;3.50;;
39400;SDS011;54391;50.000;7.360;2022-11-20T08:46:52;5.68;;;3.85;;
39400;SDS011;54391;50.000;7.360;2022-11-20T08:49:19;6.03;;;3.97;;
39400;SDS011;54391;50.000;7.360;2022-11-20T08:51:47;6.97;;;3.72;;
39400;SDS011;54391;50.000;7.360;2022-11-20T08:54:19;5.18;;;3.55;;
39400;SDS011;54391;50.000;7.360;2022-11-20T08:56:47;5.95;;;4.30;;
39400;SDS011;54391;50.000;7.360;2022-11-20T08:59:15;6.75;;;4.50;;
39400;SDS011;54391;50.000;7.360;2022-11-20T09:01:42;5.90;;;4.25;;
39400;SDS011;54391;50.000;7.360;2022-11-20T09:04:10;6.45;;;4.10;;
39400;SDS011;54391;50.000;7.360;2022-11-20T09:06:39;5.90;;;3.78;;
39400;SDS011;54391;50.000;7.360;2022-11-20T09:09:07;6.18;;;3.83;;
39400;SDS011;54391;50.000;7.360;2022-11-20T09:11:36;6.70;;;4.28;;
39400;SDS011;54391;50.000;7.360;2022-11-20T09:14:03;6.93;;;4.10;;
39400;SDS011;54391;50.000;7.360;2022-11-20T09:16:31;5.93;;;4.07;;
39400;SDS011;54391;50.000;7.360;2022-11-20T09:18:58;5.38;;;3.40;;
39400;SDS011;54391;50.000;7.360;2022-11-20T09:21:26;5.97;;;3.72;;
39400;SDS011;54391;50.000;7.360;2022-11-20T09:23:54;5.00;;;3.20;;
39400;SDS011;54391;50.000;7.360;2022-11-20T09:26:21;4.53;;;3.33;;
39400;SDS011;54391;50.000;7.360;2022-11-20T09:28:50;5.53;;;3.65;;
39400;SDS011;54391;50.000;7.360;2022-11-20T09:31:19;6.43;;;3.33;;
39400;SDS011;54391;50.000;7.360;2022-11-20T09:33:51;5.45;;;3.50;;
39400;SDS011;54391;50.000;7.360;2022-11-20T09:36:19;4.70;;;3.63;;
39400;SDS011;54391;50.000;7.360;2022-11-20T09:38:47;6.20;;;3.28;;
39400;SDS011;54391;50.000;7.360;2022-11-20T09:41:29;8.45;;;4.03;;
39400;SDS011;54391;50.000;7.360;2022-11-20T09:44:20;5.43;;;3.90;;
39400;SDS011;54391;50.000;7.360;2022-11-20T09:46:59;5.78;;;3.83;;
39400;SDS011;54391;50.000;7.360;2022-11-20T09:49:32;5.72;;;3.53;;
39400;SDS011;54391;50.000;7.360;2022-11-20T09:52:12;5.93;;;4.00;;
39400;SDS011;54391;50.000;7.360;2022-11-20T09:54:49;6.55;;;4.13;;
39400;SDS011;54391;50.000;7.360;2022-11-20T09:57:18;5.97;;;3.58;;
39400;SDS011;54391;50.000;7.360;2022-11-20T09:59:50;8.32;;;4.63;;
39400;SDS011;54391;50.000;7.360;2022-11-20T10:02:25;7.82;;;4.43;;
39400;SDS011;54391;50.000;7.360;2022-11-20T10:04:57;7.10;;;4.30;;
39400;SDS011;54391;50.000;7.360;2022-11-20T10:07:30;6.15;;;4.28;;
39400;SDS011;54391;50.000;7.360;2022-11-20T10:10:02;7.38;;;3.97;;
39400;SDS011;54391;50.000;7.360;2022-11-20T10:12:32;6.18;;;3.95;;
39400;SDS011;54391;50.000;7.360;2022-11-20T10:15:12;7.53;;;4.03;;
39400;SDS011;54391;50.000;7.360;2022-11-20T10:17:59;7.15;;;4.45;;
39400;SDS011;54391;50.000;7.360;2022-11-20T10:20:40;6.15;;;4.18;;
39400;SDS011;54391;50.000;7.360;2022-11-20T10:23:17;8.48;;;4.80;;
39400;SDS011;54391;50.000;7.360;2022-11-20T10:25:55;9.23;;;5.05;;
39400;SDS011;54391;50.000;7.360;2022-11-20T10:28:35;7.90;;;4.88;;
39400;SDS011;54391;50.000;7.360;2022-11-20T10:31:14;8.13;;;4.47;;
39400;SDS011;54391;50.000;7.360;2022-11-20T10:33:51;7.75;;;5.03;;
39400;SDS011;54391;50.000;7.360;2022-11-20T10:36:22;6.90;;;4.63;;
39400;SDS011;54391;50.000;7.360;2022-11-20T10:38:54;9.27;;;5.40;;
39400;SDS011;54391;50.000;7.360;2022-11-20T10:41:25;6.97;;;4.15;;
39400;SDS011;54391;50.000;7.360;2022-11-20T10:44:00;8.38;;;5.07;;
39400;SDS011;54391;50.000;7.360;2022-11-20T10:46:34;6.37;;;4.73;;
39400;SDS011;54391;50.000;7.360;2022-11-20T10:49:25;10.45;;;5.47;;
39400;SDS011;54391;50.000;7.360;2022-11-20T10:51:56;6.65;;;4.22;;
39400;SDS011;54391;50.000;7.360;2022-11-20T10:54:35;8.52;;;5.15;;
39400;SDS011;54391;50.000;7.360;2022-11-20T10:57:10;7.85;;;4.40;;
39400;SDS011;54391;50.000;7.360;2022-11-20T10:59:59;6.55;;;4.05;;
39400;SDS011;54391;50.000;7.360;2022-11-20T11:02:33;5.53;;;3.05;;
39400;SDS011;54391;50.000;7.360;2022-11-20T11:05:07;7.00;;;3.97;;
39400;SDS011;54391;50.000;7.360;2022-11-20T11:07:43;5.20;;;3.00;;
39400;SDS011;54391;50.000;7.360;2022-11-20T11:10:14;6.28;;;3.70;;
39400;SDS011;54391;50.000;7.360;2022-11-20T11:12:44;6.40;;;3.72;;
39400;SDS011;54391;50.000;7.360;2022-11-20T11:15:14;5.60;;;3.70;;
39400;SDS011;54391;50.000;7.360;2022-11-20T11:17:54;4.75;;;3.10;;
39400;SDS011;54391;50.000;7.360;2022-11-20T11:20:21;5.43;;;3.17;;
39400;SDS011;54391;50.000;7.360;2022-11-20T11:22:50;4.55;;;2.85;;
39400;SDS011;54391;50.000;7.360;2022-11-20T11:25:25;5.47;;;3.53;;
39400;SDS011;54391;50.000;7.360;2022-11-20T11:28:01;5.00;;;2.80;;
39400;SDS011;54391;50.000;7.360;2022-11-20T11:30:30;5.45;;;3.15;;
39400;SDS011;54391;50.000;7.360;2022-11-20T11:33:10;5.72;;;3.70;;
39400;SDS011;54391;50.000;7.360;2022-11-20T11:35:45;5.00;;;2.70;;
39400;SDS011;54391;50.000;7.360;2022-11-20T11:38:16;2.92;;;2.40;;
39400;SDS011;54391;50.000;7.360;2022-11-20T11:40:47;2.80;;;2.10;;
39400;SDS011;54391;50.000;7.360;2022-11-20T11:43:17;4.20;;;2.45;;
39400;SDS011;54391;50.000;7.360;2022-11-20T11:46:08;3.35;;;2.65;;
39400;SDS011;54391;50.000;7.360;2022-11-20T11:49:01;3.47;;;2.15;;
39400;SDS011;54391;50.000;7.360;2022-11-20T11:51:39;3.90;;;2.40;;
39400;SDS011;54391;50.000;7.360;2022-11-20T11:54:15;4.18;;;2.60;;
39400;SDS011;54391;50.000;7.360;2022-11-20T11:56:46;3.83;;;2.58;;
39400;SDS011;54391;50.000;7.360;2022-11-20T11:59:15;2.60;;;2.10;;
39400;SDS011;54391;50.000;7.360;2022-11-20T12:01:51;4.10;;;2.35;;
39400;SDS011;54391;50.000;7.360;2022-11-20T12:04:25;2.70;;;1.60;;
39400;SDS011;54391;50.000;7.360;2022-11-20T12:07:06;2.30;;;1.83;;
39400;SDS011;54391;50.000;7.360;2022-11-20T12:09:41;3.40;;;1.65;;
39400;SDS011;54391;50.000;7.360;2022-11-20T12:12:16;1.20;;;1.08;;
39400;SDS011;54391;50.000;7.360;2022-11-20T12:14:47;2.90;;;1.48;;
39400;SDS011;54391;50.000;7.360;2022-11-20T12:17:18;2.53;;;1.55;;
39400;SDS011;54391;50.000;7.360;2022-11-20T12:19:47;1.90;;;1.35;;
39400;SDS011;54391;50.000;7.360;2022-11-20T12:22:17;3.17;;;1.35;;
39400;SDS011;54391;50.000;7.360;2022-11-20T12:24:56;4.15;;;1.40;;
39400;SDS011;54391;50.000;7.360;2022-11-20T12:27:38;3.22;;;1.88;;
39400;SDS011;54391;50.000;7.360;2022-11-20T12:30:33;4.13;;;2.20;;
39400;SDS011;54391;50.000;7.360;2022-11-20T12:33:12;2.22;;;1.42;;
39400;SDS011;54391;50.000;7.360;2022-11-20T12:35:55;2.72;;;1.42;;
39400;SDS011;54391;50.000;7.360;2022-11-20T12:38:37;2.28;;;1.40;;
39400;SDS011;54391;50.000;7.360;2022-11-20T12:41:20;3.00;;;1.20;;
39400;SDS011;54391;50.000;7.360;2022-11-20T12:44:16;5.63;;;1.73;;
39400;SDS011;54391;50.000;7.360;2022-11-20T12:47:15;3.78;;;1.33;;
39400;SDS011;54391;50.000;7.360;2022-11-20T12:49:51;4.28;;;1.45;;
39400;SDS011;54391;50.000;7.360;2022-11-20T12:52:32;3.97;;;1.52;;
39400;SDS011;54391;50.000;7.360;2022-11-20T12:55:11;3.58;;;1.73;;
39400;SDS011;54391;50.000;7.360;2022-11-20T12:57:50;2.53;;;1.10;;
39400;SDS011;54391;50.000;7.360;2022-11-20T13:00:23;2.30;;;1.17;;
39400;SDS011;54391;50.000;7.360;2022-11-20T13:05:51;2.63;;;1.10;;
39400;SDS011;54391;50.000;7.360;2022-11-20T13:08:29;1.83;;;1.52;;
39400;SDS011;54391;50.000;7.360;2022-11-20T13:11:02;2.28;;;1.10;;
39400;SDS011;54391;50.000;7.360;2022-11-20T13:13:40;3.55;;;1.45;;
39400;SDS011;54391;50.000;7.360;2022-11-20T13:16:30;3.95;;;1.52;;
39400;SDS011;54391;50.000;7.360;2022-11-20T13:19:03;2.92;;;1.40;;
39400;SDS011;54391;50.000;7.360;2022-11-20T13:21:35;2.95;;;1.05;;
39400;SDS011;54391;50.000;7.360;2022-11-20T13:24:07;6.75;;;1.83;;
39400;SDS011;54391;50.000;7.360;2022-11-20T13:26:58;1.92;;;1.08;;
39400;SDS011;54391;50.000;7.360;2022-11-20T13:29:27;2.60;;;1.10;;
39400;SDS011;54391;50.000;7.360;2022-11-20T13:32:02;3.33;;;1.10;;
39400;SDS011;54391;50.000;7.360;2022-11-20T13:34:31;1.80;;;1.15;;
39400;SDS011;54391;50.000;7.360;2022-11-20T13:36:59;6.38;;;1.30;;
39400;SDS011;54391;50.000;7.360;2022-11-20T13:39:31;2.17;;;1.10;;
39400;SDS011;54391;50.000;7.360;2022-11-20T13:42:00;3.60;;;1.35;;
39400;SDS011;54391;50.000;7.360;2022-11-20T13:44:30;5.65;;;1.42;;
39400;SDS011;54391;50.000;7.360;2022-11-20T13:47:03;2.58;;;1.20;;
39400;SDS011;54391;50.000;7.360;2022-11-20T13:49:44;2.67;;;1.08;;
39400;SDS011;54391;50.000;7.360;2022-11-20T13:52:22;5.57;;;1.10;;
39400;SDS011;54391;50.000;7.360;2022-11-20T13:55:07;2.38;;;0.80;;
39400;SDS011;54391;50.000;7.360;2022-11-20T13:57:49;2.67;;;1.17;;
39400;SDS011;54391;50.000;7.360;2022-11-20T14:00:41;3.20;;;1.10;;
39400;SDS011;54391;50.000;7.360;2022-11-20T14:03:14;1.95;;;1.38;;
39400;SDS011;54391;50.000;7.360;2022-11-20T14:05:49;3.05;;;0.93;;
39400;SDS011;54391;50.000;7.360;2022-11-20T14:08:23;2.72;;;0.80;;
39400;SDS011;54391;50.000;7.360;2022-11-20T14:11:05;3.38;;;0.65;;
39400;SDS011;54391;50.000;7.360;2022-11-20T14:13:55;2.40;;;0.93;;
39400;SDS011;54391;50.000;7.360;2022-11-20T14:16:25;1.08;;;0.75;;
39400;SDS011;54391;50.000;7.360;2022-11-20T14:18:54;2.40;;;1.10;;
39400;SDS011;54391;50.000;7.360;2022-11-20T14:21:23;2.42;;;1.23;;
39400;SDS011;54391;50.000;7.360;2022-11-20T14:23:52;4.07;;;1.02;;
39400;SDS011;54391;50.000;7.360;2022-11-20T14:26:22;1.98;;;0.70;;
39400;SDS011;54391;50.000;7.360;2022-11-20T14:28:50;4.45;;;1.10;;
39400;SDS011;54391;50.000;7.360;2022-11-20T14:31:21;4.43;;;1.15;;
39400;SDS011;54391;50.000;7.360;2022-11-20T14:33:51;4.47;;;1.20;;
39400;SDS011;54391;50.000;7.360;2022-11-20T14:36:20;1.95;;;1.02;;
39400;SDS011;54391;50.000;7.360;2022-11-20T14:38:49;1.42;;;0.85;;
39400;SDS011;54391;50.000;7.360;2022-11-20T14:41:18;2.10;;;1.25;;
39400;SDS011;54391;50.000;7.360;2022-11-20T14:43:49;5.00;;;2.42;;
39400;SDS011;54391;50.000;7.360;2022-11-20T14:46:20;2.63;;;1.70;;
39400;SDS011;54391;50.000;7.360;2022-11-20T14:48:50;2.20;;;1.40;;
39400;SDS011;54391;50.000;7.360;2022-11-20T14:51:25;3.20;;;1.35;;
39400;SDS011;54391;50.000;7.360;2022-11-20T14:53:55;3.75;;;0.90;;
39400;SDS011;54391;50.000;7.360;2022-11-20T14:56:23;3.45;;;1.60;;
39400;SDS011;54391;50.000;7.360;2022-11-20T14:58:58;5.85;;;1.55;;
39400;SDS011;54391;50.000;7.360;2022-11-20T15:01:28;2.53;;;0.95;;
39400;SDS011;54391;50.000;7.360;2022-11-20T15:03:59;2.70;;;1.00;;
39400;SDS011;54391;50.000;7.360;2022-11-20T15:06:28;1.85;;;0.90;;
39400;SDS011;54391;50.000;7.360;2022-11-20T15:08:57;3.63;;;0.90;;
39400;SDS011;54391;50.000;7.360;2022-11-20T15:11:27;4.07;;;1.02;;
39400;SDS011;54391;50.000;7.360;2022-11-20T15:13:59;4.43;;;1.15;;